Météo Cheval Rigon

 

Relevés d'aujourd'hui



 

22/8/19
Time         Wind Dir   Wind Spd  Wind Gust   Humidity       Temp   Tot Rain Wind Chill  Dew Point   Barom SL Humidity R Temp Out R Tot Rain R   WindCh R   Dew Pt R SL Barom R Temp Out H Temp Out L  DailyRain   HourRain   24HrRain   RainRate  MonthRain
                          km/hr      km/hr          %         C         mm         C         C         mb       %/hr      C/hr      mm/hr      C/hr      C/hr      mm/hr         C         C         mm         mm         mm      mm/hr         mm
0:00               26          2          5         75       15.3     364.00       15.3       10.9    1023.04        1.5       0.13      0.000       0.13       0.47      0.064       15.3       15.3       0.00       0.00       0.00      0.000      44.20
0:15               26          0          2         75       15.4     364.00       15.4       11.0    1022.97        1.2       0.15      0.000       0.15       0.41     -0.008       15.4       15.3       0.00       0.00       0.00      0.000      44.20
0:30               26          0          0         76       15.1     364.00       15.1       10.9    1022.77        1.8      -0.19      0.000      -0.19       0.20     -0.190       15.4       15.1       0.00       0.00       0.00      0.000      44.20
0:45               26          0          0         79       14.5     364.00       14.5       10.9    1022.60        4.0      -0.63      0.000      -0.63       0.20     -0.297       15.4       14.5       0.00       0.00       0.00      0.000      44.20
1:00               26          0          0         80       14.1     364.00       14.1       10.7    1022.53        4.1      -0.84      0.000      -0.84       0.01     -0.288       15.4       14.1       0.00       0.00       0.00      0.000      44.20
1:15               26          0          0         81       13.6     364.00       13.6       10.4    1022.56        4.2      -1.10      0.000      -1.10      -0.25     -0.195       15.4       13.6       0.00       0.00       0.00      0.000      44.20
1:30               26          0          0         82       13.3     364.00       13.3       10.3    1022.50        4.0      -1.10      0.000      -1.10      -0.29     -0.213       15.4       13.3       0.00       0.00       0.00      0.000      44.20
1:45               26          0          2         83       13.2     364.00       13.2       10.3    1022.53        3.9      -1.00      0.000      -1.00      -0.22     -0.135       15.4       13.2       0.00       0.00       0.00      0.000      44.20
2:00               26          0          0         85       13.1     364.00       13.1       10.6    1022.50        4.7      -0.83      0.000      -0.83       0.07     -0.130       15.4       13.1       0.00       0.00       0.00      0.000      44.20
2:15               26          0          2         85       12.6     364.00       12.6       10.1    1022.43        3.8      -1.14      0.000      -1.14      -0.40     -0.163       15.4       12.6       0.00       0.00       0.00      0.000      44.20
2:30               26          0          0         87       12.4     364.00       12.4       10.3    1022.46        4.8      -1.02      0.000      -1.02      -0.14     -0.100       15.4       12.4       0.00       0.00       0.00      0.000      44.20
2:45               26          0          2         88       12.4     364.00       12.4       10.5    1022.43        4.6      -0.73      0.000      -0.73       0.11     -0.097       15.4       12.3       0.00       0.00       0.00      0.000      44.20
3:00               26          0          2         88       12.1     364.00       12.1       10.2    1022.33        3.7      -0.88      0.000      -0.88      -0.19     -0.163       15.4       12.1       0.00       0.00       0.00      0.000      44.20
3:15               26          0          3         89       11.8     364.00       11.8       10.1    1022.22        3.8      -0.92      0.000      -0.92      -0.23     -0.210       15.4       11.8       0.00       0.00       0.00      0.000      44.20
3:30               26          0          3         90       12.1     364.00       12.1       10.5    1022.16        3.8      -0.52      0.000      -0.52       0.15     -0.226       15.4       11.8       0.00       0.00       0.00      0.000      44.20
3:45               27          0          2         90       12.3     364.00       12.3       10.7    1022.05        3.0      -0.16      0.000      -0.16       0.36     -0.260       15.4       11.8       0.00       0.00       0.00      0.000      44.20
4:00               27          0          0         89       12.2     364.00       12.2       10.5    1022.09        1.4      -0.23      0.000      -0.23       0.02     -0.182       15.4       11.8       0.00       0.00       0.00      0.000      44.20
4:15               27          0          0         89       11.9     364.00       11.9       10.1    1022.09        1.1      -0.48      0.000      -0.48      -0.28     -0.142       15.4       11.8       0.00       0.00       0.00      0.000      44.20
4:30               27          0          2         91       11.8     364.00       11.8       10.4    1021.99        2.6      -0.42      0.000      -0.42       0.04     -0.200       15.4       11.8       0.00       0.00       0.00      0.000      44.20
4:45               27          0          2         90       11.7     364.00       11.7       10.1    1021.92        1.2      -0.43      0.000      -0.43      -0.21     -0.199       15.4       11.7       0.00       0.00       0.00      0.000      44.20
5:00               27          0          0         91       11.7     364.00       11.7       10.2    1021.82        1.8      -0.38      0.000      -0.38      -0.08     -0.236       15.4       11.7       0.00       0.00       0.00      0.000      44.20
5:15               27          2          2         90       11.3     364.00       11.3        9.7    1021.89        0.6      -0.65      0.000      -0.65      -0.53     -0.137       15.4       11.3       0.00       0.00       0.00      0.000      44.20
5:30               27          0          2         92       11.2     364.00       11.2        9.9    1021.99        2.3      -0.59      0.000      -0.59      -0.21     -0.020       15.4       11.1       0.00       0.00       0.00      0.000      44.20
5:45               27          0          0         92       11.1     364.00       11.1        9.9    1022.12        1.8      -0.51      0.000      -0.51      -0.21      0.100       15.4       11.1       0.00       0.00       0.00      0.000      44.20
6:00               27          0          0         92       11.0     364.00       11.0        9.8    1022.02        1.4      -0.50      0.000      -0.50      -0.26     -0.016       15.4       10.9       0.00       0.00       0.00      0.000      44.20
6:15               27          0          0         92       10.7     364.00       10.7        9.5    1022.05        1.0      -0.64      0.000      -0.64      -0.47      0.018       15.4       10.7       0.00       0.00       0.00      0.000      44.20
6:30               27          0          0         93       10.7     364.00       10.7        9.6    1022.12        1.6      -0.54      0.000      -0.54      -0.27      0.076       15.4       10.6       0.00       0.00       0.00      0.000      44.20
6:45               27          0          0         93       10.5     364.00       10.5        9.4    1022.16        1.3      -0.58      0.000      -0.58      -0.37      0.090       15.4       10.5       0.00       0.00       0.00      0.000      44.20
7:00               27          0          0         93       10.4     364.00       10.4        9.4    1022.33        1.0      -0.50      0.000      -0.50      -0.34      0.216       15.4       10.4       0.00       0.00       0.00      0.000      44.20
7:15               27          0          0         94       10.5     364.00       10.5        9.6    1022.56        1.7      -0.34      0.000      -0.34      -0.07      0.382       15.4       10.4       0.00       0.00       0.00      0.000      44.20
7:30               27          0          0         94       10.8     364.00       10.8        9.9    1022.77        1.3      -0.02      0.000      -0.02       0.19      0.471       15.4       10.4       0.00       0.00       0.00      0.000      44.20
7:45               27          0          0         95       10.9     364.00       10.9       10.2    1022.83        2.0       0.13      0.000       0.13       0.44      0.423       15.4       10.4       0.00       0.00       0.00      0.000      44.20
8:00               27          0          0         94       11.0     364.00       11.0       10.1    1022.90        0.7       0.14      0.000       0.14       0.26      0.388       15.4       10.4       0.00       0.00       0.00      0.000      44.20
8:15               27          0          0         95       11.3     364.00       11.3       10.6    1022.94        1.4       0.42      0.000       0.42       0.64      0.333       15.4       10.4       0.00       0.00       0.00      0.000      44.20
8:30               27          0          0         95       11.9     364.00       11.9       11.2    1022.97        1.1       0.88      0.000       0.88       1.05      0.277       15.4       10.4       0.00       0.00       0.00      0.000      44.20
8:45               27          0          0         94       12.3     364.00       12.3       11.4    1023.10       -0.1       1.03      0.000       1.03       1.00      0.337       15.4       10.4       0.00       0.00       0.00      0.000      44.20
9:00               27          0          0         93       12.6     364.00       12.6       11.5    1023.21       -1.1       1.00      0.000       1.00       0.82      0.349       15.4       10.4       0.00       0.00       0.00      0.000      44.20
9:15               27          0          0         93       12.9     364.00       12.9       11.8    1023.31       -0.8       1.12      0.000       1.12       0.98      0.364       15.4       10.4       0.00       0.00       0.00      0.000      44.20
9:30               27          0          0         91       13.3     364.00       13.3       11.9    1023.34       -2.4       1.22      0.000       1.22       0.81      0.309       15.4       10.4       0.00       0.00       0.00      0.000      44.20
9:45               27          0          2         89       14.1     364.00       14.1       12.3    1023.44       -3.8       1.64      0.000       1.64       1.00      0.333       15.4       10.4       0.00       0.00       0.00      0.000      44.20
10:00              27          0          2         88       15.1     364.00       15.1       13.1    1023.44       -3.9       2.18      0.000       2.18       1.50      0.265       15.4       10.4       0.00       0.00       0.00      0.000      44.20
10:15              27          0          5         83       16.1     364.00       16.1       13.2    1023.41       -7.4       2.53      0.000       2.53       1.19      0.181       16.1       10.4       0.00       0.00       0.00      0.000      44.20
10:30              27          0          3         80       17.1     364.00       17.1       13.6    1023.38       -8.4       2.89      0.000       2.89       1.35      0.095       17.1       10.4       0.00       0.00       0.00      0.000      44.20
10:45              27          0          5         74       18.1     364.00       18.1       13.4    1023.44      -11.7       3.08      0.000       3.08       0.81      0.128       18.1       10.4       0.00       0.00       0.00      0.000      44.20
11:00              19          0          5         71       18.6     364.00       18.6       13.3    1023.44      -11.7       2.88      0.000       2.88       0.55      0.095       18.6       10.4       0.00       0.00       0.00      0.000      44.20
11:15              19          3          6         68       19.3     364.00       19.3       13.2    1023.55      -11.7       2.83      0.000       2.83       0.43      0.166       19.3       10.4       0.00       0.00       0.00      0.000      44.20
11:30              15          2          5         66       19.9     364.00       19.9       13.4    1023.55      -10.8       2.81      0.000       2.81       0.52      0.132       19.9       10.4       0.00       0.00       0.00      0.000      44.20
11:45               9          0          3         63       20.7     364.00       20.7       13.4    1023.51      -11.1       2.89      0.000       2.89       0.44      0.069       20.7       10.4       0.00       0.00       0.00      0.000      44.20
12:00               5          8          8         63       20.8     364.00       20.8       13.5    1023.51       -8.6       2.36      0.000       2.36       0.45      0.052       20.8       10.4       0.00       0.00       0.00      0.000      44.20
12:15               5          0          8         62       21.1     364.00       21.1       13.5    1023.51       -7.6       2.04      0.000       2.04       0.33      0.049       21.1       10.4       0.00       0.00       0.00      0.000      44.20
12:30               5          3          8         61       21.3     364.00       21.3       13.5    1023.55       -6.6       1.79      0.000       1.79       0.26      0.071       21.3       10.4       0.00       0.00       0.00      0.000      44.20
12:45               5          2          6         60       21.6     364.00       21.6       13.5    1023.55       -6.1       1.69      0.000       1.69       0.24      0.053       21.6       10.4       0.00       0.00       0.00      0.000      44.20
13:00               5          5          6         58       21.9     364.00       21.9       13.3    1023.41       -6.6       1.61      0.000       1.61      -0.01     -0.083       21.9       10.4       0.00       0.00       0.00      0.000      44.20
13:15               5          2          5         58       22.3     364.00       22.3       13.7    1023.38       -5.0       1.60      0.000       1.60       0.34     -0.116       22.3       10.4       0.00       0.00       0.00      0.000      44.20
13:30               5          2          5         55       22.8     364.00       22.8       13.3    1023.31       -6.6       1.68      0.000       1.68      -0.06     -0.149       22.8       10.4       0.00       0.00       0.00      0.000      44.20
13:45               5          2          6         54       23.4     364.00       23.4       13.6    1023.31       -6.2       1.81      0.000       1.81       0.12     -0.119       23.4       10.4       0.00       0.00       0.00      0.000      44.20
14:00               5          3          5         53       24.4     364.00       24.4       14.3    1023.24       -5.4       2.34      0.000       2.34       0.81     -0.150       24.4       10.4       0.00       0.00       0.00      0.000      44.20
14:15               5          0          5         51       24.7     364.00       24.7       13.9    1023.14       -5.9       2.03      0.000       2.03       0.31     -0.199       24.7       10.4       0.00       0.00       0.00      0.000      44.20
14:30             355          0          5         51       25.1     364.00       25.1       14.3    1023.00       -4.5       1.97      0.000       1.97       0.63     -0.281       25.1       10.4       0.00       0.00       0.00      0.000      44.20
14:45             360          3          5         48       25.3     364.00       25.3       13.5    1022.94       -6.3       1.73      0.000       1.73      -0.20     -0.284       25.3       10.4       0.00       0.00       0.00      0.000      44.20
15:00             360          0          5         45       25.8     364.00       25.8       13.0    1022.90       -7.8       1.75      0.000       1.75      -0.74     -0.256       25.8       10.4       0.00       0.00       0.00      0.000      44.20
15:15             360          0          8         46       25.9     364.00       25.9       13.4    1022.80       -5.2       1.50      0.000       1.50      -0.17     -0.289       25.9       10.4       0.00       0.00       0.00      0.000      44.20
15:30             360          2          5         44       26.2     364.00       26.2       13.0    1022.77       -6.0       1.40      0.000       1.40      -0.57     -0.253       26.3       10.4       0.00       0.00       0.00      0.000      44.20
15:45               5          0          6         44       26.3     364.00       26.3       13.1    1022.73       -4.7       1.18      0.000       1.18      -0.37     -0.221       26.4       10.4       0.00       0.00       0.00      0.000      44.20
16:00               9          2          6         43       26.9     364.00       26.9       13.3    1022.66       -4.3       1.38      0.000       1.38      -0.11     -0.232       26.9       10.4       0.00       0.00       0.00      0.000      44.20
16:15               9          0          6         43       26.9     364.00       26.9       13.3    1022.53       -3.5       1.13      0.000       1.13      -0.10     -0.294       26.9       10.4       0.00       0.00       0.00      0.000      44.20
16:30               9          3          5         40       27.1     364.00       27.1       12.3    1022.36       -5.5       0.98      0.000       0.98      -1.00     -0.383       27.1       10.4       0.00       0.00       0.00      0.000      44.20
16:45              16          3          3         44       27.6     364.00       27.6       14.2    1022.39       -0.8       1.23      0.000       1.23       0.91     -0.271       27.6       10.4       0.00       0.00       0.00      0.000      44.20
17:00              63          0          5         39       27.4     364.00       27.4       12.3    1022.33       -5.0       0.87      0.000       0.87      -0.99     -0.265       27.6       10.4       0.00       0.00       0.00      0.000      44.20
17:15              88          0          3         40       27.3     364.00       27.3       12.6    1022.36       -3.2       0.59      0.000       0.59      -0.59     -0.177       27.6       10.4       0.00       0.00       0.00      0.000      44.20
17:30              69          0          3         41       27.7     364.00       27.7       13.3    1022.36       -1.8       0.82      0.000       0.82       0.14     -0.136       27.7       10.4       0.00       0.00       0.00      0.000      44.20
17:45              69          0          0         38       27.5     364.00       27.5       11.9    1022.29       -4.0       0.45      0.000       0.45      -1.07     -0.170       27.7       10.4       0.00       0.00       0.00      0.000      44.20
18:00              44          2          3         38       27.6     364.00       27.6       12.0    1022.26       -3.5       0.40      0.000       0.40      -0.93     -0.175       27.7       10.4       0.00       0.00       0.00      0.000      44.20
18:15              54          0          2         39       27.4     364.00       27.4       12.3    1022.26       -2.1       0.22      0.000       0.22      -0.58     -0.138       27.7       10.4       0.00       0.00       0.00      0.000      44.20
18:30              54          0          2         36       27.4     364.00       27.4       11.0    1022.22       -4.6       0.10      0.000       0.10      -1.71     -0.143       27.7       10.4       0.00       0.00       0.00      0.000      44.20
18:45              55          0          2         39       26.9     364.00       26.9       11.8    1022.16       -1.6      -0.32      0.000      -0.32      -0.84     -0.169       27.7       10.4       0.00       0.00       0.00      0.000      44.20
19:00              55          0          0         40       26.9     364.00       26.9       12.2    1022.05       -0.9      -0.24      0.000      -0.24      -0.54     -0.218       27.7       10.4       0.00       0.00       0.00      0.000      44.20
19:15              55          0          0         44       26.9     364.00       26.9       13.6    1021.89        2.7      -0.20      0.000      -0.20       0.82     -0.317       27.7       10.4       0.00       0.00       0.00      0.000      44.20
19:30              55          0          0         44       27.3     364.00       27.3       14.0    1021.92        2.2       0.23      0.000       0.23       1.03     -0.217       27.7       10.4       0.00       0.00       0.00      0.000      44.20
19:45              55          0          0         43       27.1     364.00       27.1       13.4    1021.95        1.1      -0.10      0.000      -0.10       0.33     -0.141       27.7       10.4       0.00       0.00       0.00      0.000      44.20
20:00              55          2          2         44       25.1     364.00       25.1       12.0    1022.02        1.8      -1.89      0.000      -1.89      -1.03     -0.039       27.7       10.4       0.00       0.00       0.00      0.000      44.20
20:15              61          0          3         50       22.9     364.00       22.9       11.9    1022.05        6.9      -3.37      0.000      -3.37      -0.77      0.004       27.7       10.4       0.00       0.00       0.00      0.000      44.20
20:30              99          3          5         56       21.3     364.00       21.3       12.2    1022.05       10.7      -4.05      0.000      -4.05      -0.38      0.010       27.7       10.4       0.00       0.00       0.00      0.000      44.20
20:45             100          3          6         59       20.1     364.00       20.1       11.8    1022.02       11.0      -4.22      0.000      -4.22      -0.61     -0.020       27.7       10.4       0.00       0.00       0.00      0.000      44.20
21:00              99          5          8         60       19.7     364.00       19.7       11.7    1022.09        9.3      -3.64      0.000      -3.64      -0.60      0.044       27.7       10.4       0.00       0.00       0.00      0.000      44.20
21:15              92          5          8         60       19.4     364.00       19.4       11.4    1022.26        7.3      -3.09      0.000      -3.09      -0.70      0.173       27.7       10.4       0.00       0.00       0.00      0.000      44.20
21:30              81          0         10         60       19.2     364.00       19.2       11.2    1022.53        5.7      -2.60      0.000      -2.60      -0.72      0.380       27.7       10.4       0.00       0.00       0.00      0.000      44.20
21:45             109          5          8         61       18.9     364.00       18.9       11.3    1022.53        5.4      -2.21      0.000      -2.21      -0.49      0.294       27.7       10.4       0.00       0.00       0.00      0.000      44.20
22:00             100          3         10         61       18.6     364.00       18.6       10.9    1022.70        4.3      -2.07      0.000      -2.07      -0.70      0.374       27.7       10.4       0.00       0.00       0.00      0.000      44.20

 


 

 

 

Retour accueil